createdAt,value
2022-10-25T00:00:24.313Z,57.66
2022-10-25T00:02:53.490Z,57.51
2022-10-25T00:05:21.350Z,57.52
2022-10-25T00:07:49.207Z,57.70
2022-10-25T00:10:18.324Z,57.80
2022-10-25T00:12:51.021Z,57.71
2022-10-25T00:15:19.049Z,57.81
2022-10-25T00:17:46.893Z,58.10
2022-10-25T00:20:16.158Z,58.06
2022-10-25T00:22:44.062Z,58.29
2022-10-25T00:25:12.056Z,58.29
2022-10-25T00:27:39.742Z,58.49
2022-10-25T00:30:08.699Z,58.41
2022-10-25T00:32:37.449Z,58.42
2022-10-25T00:35:05.669Z,58.67
2022-10-25T00:37:35.060Z,58.43
2022-10-25T00:40:02.941Z,58.53
2022-10-25T00:42:30.651Z,58.50
2022-10-25T00:45:01.595Z,58.40
2022-10-25T00:47:46.962Z,58.08
2022-10-25T00:50:23.898Z,58.28
2022-10-25T00:52:53.722Z,58.26
2022-10-25T00:55:22.306Z,58.18
2022-10-25T00:57:52.584Z,58.00
2022-10-25T01:00:20.292Z,58.20
2022-10-25T01:02:48.055Z,57.90
2022-10-25T01:05:16.327Z,57.99
2022-10-25T01:07:44.187Z,57.81
2022-10-25T01:10:13.465Z,58.19
2022-10-25T01:12:41.151Z,58.11
2022-10-25T01:15:10.042Z,58.06
2022-10-25T01:17:42.907Z,58.00
2022-10-25T01:20:42.003Z,58.01
2022-10-25T01:23:18.175Z,57.65
2022-10-25T01:26:07.721Z,57.76
2022-10-25T01:28:38.376Z,57.96
2022-10-25T01:31:13.563Z,57.83
2022-10-25T01:33:41.793Z,57.91
2022-10-25T01:38:47.928Z,58.04
2022-10-25T01:41:19.511Z,57.88
2022-10-25T01:43:52.503Z,57.78
2022-10-25T01:46:23.166Z,57.94
2022-10-25T01:48:51.962Z,57.86
2022-10-25T01:51:19.820Z,57.71
2022-10-25T01:53:48.260Z,57.92
2022-10-25T01:56:19.323Z,57.88
2022-10-25T01:58:50.051Z,57.93
2022-10-25T02:01:23.086Z,57.46
2022-10-25T02:03:52.287Z,57.97
2022-10-25T02:06:26.600Z,57.96
2022-10-25T02:08:58.043Z,57.68
2022-10-25T02:11:26.429Z,57.94
2022-10-25T02:14:00.141Z,57.87
2022-10-25T02:16:30.391Z,57.88
2022-10-25T02:19:00.156Z,57.93
2022-10-25T02:21:27.817Z,57.75
2022-10-25T02:23:55.707Z,57.92
2022-10-25T02:26:23.400Z,57.80
2022-10-25T02:28:51.152Z,57.77
2022-10-25T02:31:20.568Z,57.69
2022-10-25T02:33:49.651Z,57.73
2022-10-25T02:36:19.042Z,57.74
2022-10-25T02:38:46.833Z,57.51
2022-10-25T02:41:14.467Z,57.64
2022-10-25T02:43:42.215Z,57.87
2022-10-25T02:46:10.674Z,57.87
2022-10-25T02:48:38.648Z,57.85
2022-10-25T02:51:07.901Z,57.73
2022-10-25T02:53:35.781Z,57.85
2022-10-25T02:56:03.839Z,57.65
2022-10-25T02:58:32.095Z,57.54
2022-10-25T03:01:00.123Z,57.61
2022-10-25T03:03:28.135Z,57.68
2022-10-25T03:05:55.958Z,57.88
2022-10-25T03:08:25.067Z,57.68
2022-10-25T03:10:52.955Z,57.71
2022-10-25T03:13:20.613Z,57.91
2022-10-25T03:15:48.480Z,58.06
2022-10-25T03:18:16.216Z,57.71
2022-10-25T03:20:43.981Z,58.00
2022-10-25T03:23:11.849Z,57.85
2022-10-25T03:25:41.008Z,58.01
2022-10-25T03:28:08.689Z,57.72
2022-10-25T03:30:36.822Z,57.94
2022-10-25T03:33:04.637Z,57.88
2022-10-25T03:35:32.302Z,57.97
2022-10-25T03:37:59.986Z,57.76
2022-10-25T03:40:27.846Z,57.71
2022-10-25T03:42:56.852Z,57.69
2022-10-25T03:45:24.602Z,57.63
2022-10-25T03:47:52.250Z,57.58
2022-10-25T03:50:20.042Z,57.77
2022-10-25T03:52:47.703Z,57.85
2022-10-25T03:55:15.342Z,58.12
2022-10-25T03:57:43.015Z,57.90
2022-10-25T04:00:13.460Z,58.20
2022-10-25T04:02:41.213Z,58.29
2022-10-25T04:05:09.967Z,58.52
2022-10-25T04:07:37.768Z,58.42
2022-10-25T04:10:06.511Z,58.33
2022-10-25T04:12:34.202Z,58.47
2022-10-25T04:15:01.951Z,58.34
2022-10-25T04:17:32.028Z,58.42
2022-10-25T04:19:59.716Z,58.14
2022-10-25T04:22:27.681Z,58.06
2022-10-25T04:24:55.549Z,58.16
2022-10-25T04:27:23.325Z,58.09
2022-10-25T04:29:51.080Z,58.04
2022-10-25T04:34:48.902Z,58.14
2022-10-25T04:37:16.871Z,57.97
2022-10-25T04:39:44.694Z,58.00
2022-10-25T04:42:12.344Z,58.09
2022-10-25T04:44:40.108Z,58.37
2022-10-25T04:47:07.833Z,58.33
2022-10-25T04:49:35.603Z,58.33
2022-10-25T04:52:04.712Z,58.25
2022-10-25T04:54:32.463Z,58.22
2022-10-25T04:57:00.490Z,57.92
2022-10-25T04:59:28.289Z,58.11
2022-10-25T05:01:56.100Z,58.03
2022-10-25T05:04:23.877Z,58.30
2022-10-25T05:06:51.699Z,58.15
2022-10-25T05:09:20.899Z,58.26
2022-10-25T05:11:48.783Z,58.31
2022-10-25T05:14:17.755Z,58.02
2022-10-25T05:16:46.190Z,58.04
2022-10-25T05:19:14.030Z,58.20
2022-10-25T05:21:41.873Z,57.63
2022-10-25T05:24:09.666Z,58.04
2022-10-25T05:26:39.135Z,58.49
2022-10-25T05:29:10.312Z,58.19
2022-10-25T05:31:38.922Z,58.16
2022-10-25T05:34:06.829Z,57.93
2022-10-25T05:36:34.611Z,58.02
2022-10-25T05:39:02.466Z,58.02
2022-10-25T05:41:33.258Z,57.97
2022-10-25T05:44:05.887Z,58.01
2022-10-25T05:46:33.740Z,57.96
2022-10-25T05:49:01.990Z,57.87
2022-10-25T05:51:39.572Z,57.97
2022-10-25T05:54:08.357Z,58.06
2022-10-25T05:56:36.283Z,58.16
2022-10-25T05:59:08.869Z,58.32
2022-10-25T06:01:37.044Z,58.28
2022-10-25T06:04:05.424Z,58.39
2022-10-25T06:06:33.094Z,58.75
2022-10-25T06:09:01.569Z,58.74
2022-10-25T06:11:29.694Z,58.77
2022-10-25T06:13:57.524Z,58.65
2022-10-25T06:16:26.572Z,58.68
2022-10-25T06:18:54.756Z,58.69
2022-10-25T06:21:23.074Z,58.74
2022-10-25T06:23:51.062Z,58.86
2022-10-25T06:26:19.765Z,58.91
2022-10-25T06:28:47.653Z,58.71
2022-10-25T06:31:16.414Z,58.72
2022-10-25T06:33:45.764Z,58.52
2022-10-25T06:36:15.294Z,58.54
2022-10-25T06:38:43.053Z,58.83
2022-10-25T06:41:12.869Z,58.49
2022-10-25T06:43:40.722Z,58.68
2022-10-25T06:46:08.440Z,58.83
2022-10-25T06:48:37.361Z,59.00
2022-10-25T06:51:09.675Z,58.83
2022-10-25T06:53:37.675Z,58.72
2022-10-25T06:56:08.088Z,58.58
2022-10-25T06:58:38.463Z,58.49
2022-10-25T07:01:07.101Z,58.39
2022-10-25T07:03:35.790Z,58.01
2022-10-25T07:06:05.105Z,58.17
2022-10-25T07:08:42.611Z,58.18
2022-10-25T07:11:13.633Z,57.91
2022-10-25T07:13:41.441Z,57.79
2022-10-25T07:16:09.827Z,57.96
2022-10-25T07:18:37.908Z,58.13
2022-10-25T07:21:07.090Z,57.91
2022-10-25T07:23:41.824Z,57.80
2022-10-25T07:26:11.145Z,57.44
2022-10-25T07:28:38.978Z,57.38
2022-10-25T07:31:06.940Z,57.10
2022-10-25T07:33:34.854Z,57.14
2022-10-25T07:36:06.497Z,56.71
2022-10-25T07:38:38.183Z,56.70
2022-10-25T07:41:06.234Z,55.96
2022-10-25T07:43:35.325Z,55.72
2022-10-25T07:46:02.947Z,55.92
2022-10-25T07:48:30.637Z,55.88
2022-10-25T07:50:58.279Z,55.87
2022-10-25T07:53:25.967Z,55.45
2022-10-25T07:55:53.889Z,55.38
2022-10-25T07:58:21.683Z,55.49
2022-10-25T08:00:50.779Z,55.37
2022-10-25T08:03:18.976Z,55.34
2022-10-25T08:05:48.885Z,55.00
2022-10-25T08:08:17.724Z,55.29
2022-10-25T08:10:45.460Z,54.76
2022-10-25T08:13:13.183Z,54.91
2022-10-25T08:15:41.712Z,54.79
2022-10-25T08:18:10.761Z,54.72
2022-10-25T08:21:00.611Z,54.35
2022-10-25T08:23:26.294Z,54.48
2022-10-25T08:25:53.979Z,54.83
2022-10-25T08:28:21.748Z,54.71
2022-10-25T08:30:49.461Z,53.81
2022-10-25T08:33:18.602Z,53.55
2022-10-25T08:35:46.345Z,53.15
2022-10-25T08:38:14.305Z,52.00
2022-10-25T08:40:50.361Z,50.94
2022-10-25T08:43:26.674Z,48.75
2022-10-25T08:45:56.475Z,46.44
2022-10-25T08:48:27.527Z,45.55
2022-10-25T08:50:56.208Z,44.14
2022-10-25T08:53:25.065Z,43.14
2022-10-25T08:56:11.677Z,43.09
2022-10-25T08:58:49.497Z,43.15
2022-10-25T09:01:18.449Z,43.96
2022-10-25T09:03:47.914Z,43.74
2022-10-25T09:06:20.148Z,43.88
2022-10-25T09:08:55.460Z,42.86
2022-10-25T09:11:28.868Z,41.65
2022-10-25T09:13:58.867Z,41.42
2022-10-25T09:16:30.444Z,41.15
2022-10-25T09:18:59.558Z,40.56
2022-10-25T09:21:32.073Z,39.75
2022-10-25T09:24:01.012Z,39.09
2022-10-25T09:26:41.051Z,37.58
2022-10-25T09:29:13.299Z,36.67
2022-10-25T09:31:42.830Z,36.48
2022-10-25T09:34:12.014Z,36.92
2022-10-25T09:36:43.292Z,37.57
2022-10-25T09:39:16.121Z,38.16
2022-10-25T09:41:45.246Z,37.62
2022-10-25T09:44:15.185Z,37.36
2022-10-25T09:46:44.519Z,37.30
2022-10-25T09:49:19.711Z,37.79
2022-10-25T09:51:51.459Z,38.94
2022-10-25T09:54:23.426Z,39.88
2022-10-25T09:56:51.698Z,39.52
2022-10-25T09:59:19.482Z,38.11
2022-10-25T10:01:48.279Z,38.14
2022-10-25T10:04:26.242Z,36.92
2022-10-25T10:06:55.523Z,35.91
2022-10-25T10:09:23.272Z,33.60
2022-10-25T10:11:50.941Z,33.97
2022-10-25T10:14:22.089Z,34.18
2022-10-25T10:16:50.708Z,34.82
2022-10-25T10:19:19.405Z,34.95
2022-10-25T10:21:50.478Z,33.39
2022-10-25T10:24:19.511Z,33.49
2022-10-25T10:26:49.113Z,32.58
2022-10-25T10:29:19.043Z,32.00
2022-10-25T10:31:49.384Z,32.31
2022-10-25T10:34:31.022Z,32.27
2022-10-25T10:37:09.104Z,32.85
2022-10-25T10:39:36.799Z,32.26
2022-10-25T10:42:15.612Z,30.35
2022-10-25T10:44:43.857Z,28.99
2022-10-25T10:47:12.215Z,28.23
2022-10-25T10:49:42.181Z,29.02
2022-10-25T10:52:27.282Z,30.04
2022-10-25T10:54:55.013Z,31.12
2022-10-25T10:57:25.605Z,31.36
2022-10-25T10:59:54.005Z,28.54
2022-10-25T11:02:30.102Z,26.22
2022-10-25T11:04:58.164Z,24.23
2022-10-25T11:07:30.691Z,23.35
2022-10-25T11:10:19.354Z,21.97
2022-10-25T11:12:47.053Z,21.88
2022-10-25T11:15:15.276Z,21.78
2022-10-25T11:17:44.022Z,21.92
2022-10-25T11:20:20.263Z,21.02
2022-10-25T11:22:59.960Z,19.73
2022-10-25T11:25:34.539Z,19.97
2022-10-25T11:28:12.943Z,21.03
2022-10-25T11:30:42.210Z,22.46
2022-10-25T11:33:21.542Z,23.78
2022-10-25T11:36:01.774Z,25.74
2022-10-25T11:38:37.632Z,27.08
2022-10-25T11:41:07.759Z,27.02
2022-10-25T11:43:45.448Z,23.79
2022-10-25T11:46:15.642Z,23.95
2022-10-25T11:48:57.235Z,24.22
2022-10-25T11:51:30.005Z,26.56
2022-10-25T11:54:22.122Z,28.01
2022-10-25T11:56:56.364Z,29.93
2022-10-25T11:59:26.211Z,30.91
2022-10-25T12:02:05.540Z,32.05
2022-10-25T12:04:52.703Z,32.66
2022-10-25T12:07:23.600Z,33.64
2022-10-25T12:09:59.020Z,34.71
2022-10-25T12:12:33.384Z,35.34
2022-10-25T12:15:01.257Z,35.69
2022-10-25T12:17:30.519Z,36.03
2022-10-25T12:19:58.823Z,36.17
2022-10-25T12:22:30.188Z,36.35
2022-10-25T12:25:00.635Z,36.42
2022-10-25T12:27:28.599Z,36.65
2022-10-25T12:29:57.788Z,36.93
2022-10-25T12:32:28.881Z,37.24
2022-10-25T12:34:56.944Z,37.39
2022-10-25T12:37:28.038Z,37.86
2022-10-25T12:39:55.879Z,38.05
2022-10-25T12:42:25.906Z,38.87
2022-10-25T12:45:02.319Z,38.81
2022-10-25T12:47:39.918Z,39.24
2022-10-25T12:50:29.640Z,38.96
2022-10-25T12:53:23.197Z,39.51
2022-10-25T12:55:54.776Z,39.40
2022-10-25T12:58:34.080Z,39.76
2022-10-25T13:01:08.310Z,39.95
2022-10-25T13:03:53.469Z,39.92
2022-10-25T13:06:29.353Z,40.03
2022-10-25T13:09:01.024Z,40.66
2022-10-25T13:11:33.427Z,40.47
2022-10-25T13:14:02.680Z,40.30
2022-10-25T13:16:30.978Z,40.57
2022-10-25T13:19:53.118Z,40.79
2022-10-25T13:22:35.690Z,41.02
2022-10-25T13:25:06.918Z,40.44
2022-10-25T13:27:35.851Z,40.56
2022-10-25T13:30:27.436Z,40.44
2022-10-25T13:33:27.633Z,40.42
2022-10-25T13:36:03.393Z,40.92
2022-10-25T13:38:35.374Z,40.45
2022-10-25T13:41:16.654Z,40.20
2022-10-25T13:43:59.086Z,40.46
2022-10-25T13:46:31.477Z,40.61
2022-10-25T13:49:01.093Z,40.59
2022-10-25T13:51:28.738Z,40.66
2022-10-25T13:53:56.406Z,40.33
2022-10-25T13:56:34.737Z,40.87
2022-10-25T13:59:02.706Z,41.15
2022-10-25T14:01:56.639Z,40.79
2022-10-25T14:04:35.001Z,40.73
2022-10-25T14:07:39.771Z,40.39
2022-10-25T14:10:08.383Z,40.83
2022-10-25T14:12:36.109Z,40.66
2022-10-25T14:15:04.672Z,41.03
2022-10-25T14:17:35.277Z,40.50
2022-10-25T14:20:03.357Z,41.07
2022-10-25T14:22:34.431Z,41.06
2022-10-25T14:25:03.370Z,40.94
2022-10-25T14:27:32.043Z,41.30
2022-10-25T14:30:24.314Z,41.45
2022-10-25T14:32:55.414Z,40.77
2022-10-25T14:35:23.411Z,40.84
2022-10-25T14:37:51.099Z,40.73
2022-10-25T14:40:23.345Z,40.64
2022-10-25T14:42:51.344Z,40.41
2022-10-25T14:45:21.324Z,40.37
2022-10-25T14:47:49.058Z,40.14
2022-10-25T14:50:18.304Z,40.32
2022-10-25T14:52:46.445Z,40.41
2022-10-25T14:55:19.255Z,40.20
2022-10-25T14:57:47.122Z,40.82
2022-10-25T15:00:19.129Z,40.59
2022-10-25T15:02:47.284Z,40.54
2022-10-25T15:05:18.025Z,40.97
2022-10-25T15:07:46.910Z,40.81
2022-10-25T15:10:37.925Z,40.82
2022-10-25T15:13:06.674Z,41.08
2022-10-25T15:15:36.135Z,41.07
2022-10-25T15:18:03.947Z,40.92
2022-10-25T15:20:34.424Z,40.91
2022-10-25T15:23:03.396Z,41.22
2022-10-25T15:25:32.187Z,40.98
2022-10-25T15:28:09.863Z,41.23
2022-10-25T15:30:38.568Z,41.50
2022-10-25T15:33:07.186Z,41.62
2022-10-25T15:35:39.847Z,42.08
2022-10-25T15:38:09.714Z,42.57
2022-10-25T15:40:38.679Z,42.36
2022-10-25T15:43:06.366Z,42.55
2022-10-25T15:45:34.335Z,42.85
2022-10-25T15:48:02.080Z,42.86
2022-10-25T15:50:29.986Z,42.97
2022-10-25T15:52:59.226Z,43.01
2022-10-25T15:55:27.970Z,43.18
2022-10-25T15:57:55.995Z,43.26
2022-10-25T16:00:27.962Z,43.37
2022-10-25T16:02:56.208Z,43.18
2022-10-25T16:05:25.640Z,43.40
2022-10-25T16:07:53.397Z,43.43
2022-10-25T16:10:23.979Z,43.98
2022-10-25T16:12:57.138Z,43.98
2022-10-25T16:15:27.160Z,43.75
2022-10-25T16:17:55.868Z,43.98
2022-10-25T16:20:24.393Z,44.10
2022-10-25T16:22:52.163Z,44.19
2022-10-25T16:25:21.726Z,44.73
2022-10-25T16:27:49.363Z,44.88
2022-10-25T16:30:18.472Z,45.15
2022-10-25T16:32:46.430Z,45.47
2022-10-25T16:35:15.798Z,45.63
2022-10-25T16:37:43.587Z,45.88
2022-10-25T16:40:14.708Z,46.18
2022-10-25T16:42:44.114Z,46.29
2022-10-25T16:45:14.949Z,46.68
2022-10-25T16:47:42.643Z,47.07
2022-10-25T16:50:10.366Z,47.78
2022-10-25T16:52:38.132Z,47.52
2022-10-25T16:55:06.765Z,48.00
2022-10-25T16:57:34.615Z,48.32
2022-10-25T17:00:04.116Z,48.45
2022-10-25T17:02:32.012Z,48.59
2022-10-25T17:05:00.414Z,48.78
2022-10-25T17:07:28.102Z,48.87
2022-10-25T17:09:56.722Z,49.14
2022-10-25T17:12:24.478Z,49.53
2022-10-25T17:14:52.137Z,49.72
2022-10-25T17:19:54.758Z,50.00
2022-10-25T17:22:23.680Z,50.29
2022-10-25T17:24:52.215Z,50.12
2022-10-25T17:27:20.047Z,50.37
2022-10-25T17:29:48.005Z,50.64
2022-10-25T17:32:15.961Z,50.85
2022-10-25T17:34:45.257Z,51.02
2022-10-25T17:37:13.072Z,50.90
2022-10-25T17:39:41.153Z,51.30
2022-10-25T17:42:09.063Z,51.35
2022-10-25T17:44:37.161Z,51.69
2022-10-25T17:47:05.075Z,51.77
2022-10-25T17:49:34.237Z,51.58
2022-10-25T17:52:03.624Z,51.84
2022-10-25T17:54:31.551Z,51.88
2022-10-25T17:57:01.111Z,52.02
2022-10-25T17:59:29.003Z,52.13
2022-10-25T18:01:56.846Z,52.27
2022-10-25T18:04:24.648Z,52.04
2022-10-25T18:06:52.527Z,52.66
2022-10-25T18:09:21.694Z,52.94
2022-10-25T18:11:49.576Z,53.00
2022-10-25T18:14:17.323Z,53.16
2022-10-25T18:16:45.235Z,53.40
2022-10-25T18:19:14.720Z,53.80
2022-10-25T18:21:42.726Z,53.73
2022-10-25T18:24:13.045Z,54.01
2022-10-25T18:26:42.760Z,54.26
2022-10-25T18:29:11.083Z,54.23
2022-10-25T18:31:38.968Z,54.31
2022-10-25T18:34:06.989Z,54.55
2022-10-25T18:36:34.857Z,54.71
2022-10-25T18:39:03.029Z,54.98
2022-10-25T18:41:31.749Z,54.74
2022-10-25T18:44:02.426Z,54.84
2022-10-25T18:46:31.896Z,55.06
2022-10-25T18:48:59.846Z,54.79
2022-10-25T18:51:28.837Z,55.17
2022-10-25T18:53:56.764Z,55.13
2022-10-25T18:56:24.974Z,55.51
2022-10-25T18:58:53.930Z,55.58
2022-10-25T19:01:24.490Z,55.66
2022-10-25T19:03:52.845Z,55.60
2022-10-25T19:06:20.965Z,56.15
2022-10-25T19:08:49.533Z,55.84
2022-10-25T19:11:17.577Z,56.18
2022-10-25T19:13:48.938Z,56.26
2022-10-25T19:16:19.253Z,56.50
2022-10-25T19:18:48.571Z,56.44
2022-10-25T19:21:18.422Z,56.37
2022-10-25T19:23:46.623Z,56.27
2022-10-25T19:26:15.799Z,56.38
2022-10-25T19:28:43.763Z,56.68
2022-10-25T19:31:13.123Z,56.95
2022-10-25T19:33:41.235Z,56.61
2022-10-25T19:36:11.431Z,56.49
2022-10-25T19:38:39.468Z,56.68
2022-10-25T19:41:08.160Z,57.00
2022-10-25T19:43:36.185Z,57.14
2022-10-25T19:46:05.686Z,57.32
2022-10-25T19:48:33.862Z,57.67
2022-10-25T19:51:05.228Z,57.31
2022-10-25T19:53:34.517Z,57.47
2022-10-25T19:56:02.534Z,57.54
2022-10-25T19:58:30.589Z,57.10
2022-10-25T20:01:06.369Z,57.38
2022-10-25T20:03:34.105Z,57.17
2022-10-25T20:06:03.883Z,57.52
2022-10-25T20:08:34.415Z,57.35
2022-10-25T20:11:02.393Z,57.36
2022-10-25T20:13:30.258Z,57.33
2022-10-25T20:15:58.248Z,57.37
2022-10-25T20:18:28.906Z,57.19
2022-10-25T20:20:58.524Z,57.50
2022-10-25T20:23:26.513Z,57.66
2022-10-25T20:25:56.728Z,57.46
2022-10-25T20:28:24.603Z,57.80
2022-10-25T20:30:52.631Z,57.84
2022-10-25T20:33:21.128Z,57.79
2022-10-25T20:35:48.945Z,57.58
2022-10-25T20:38:16.957Z,57.51
2022-10-25T20:40:45.359Z,57.63
2022-10-25T20:43:14.674Z,57.99
2022-10-25T20:45:44.031Z,57.50
2022-10-25T20:48:11.939Z,57.72
2022-10-25T20:50:42.443Z,57.70
2022-10-25T20:53:11.000Z,57.72
2022-10-25T20:55:39.028Z,57.71
2022-10-25T20:58:06.791Z,57.64
2022-10-25T21:00:35.943Z,57.63
2022-10-25T21:03:03.564Z,57.69
2022-10-25T21:05:31.588Z,57.78
2022-10-25T21:07:59.229Z,57.53
2022-10-25T21:10:27.263Z,57.47
2022-10-25T21:12:54.945Z,57.68
2022-10-25T21:15:22.636Z,57.79
2022-10-25T21:17:51.852Z,57.97
2022-10-25T21:20:19.755Z,57.76
2022-10-25T21:22:47.889Z,57.88
2022-10-25T21:25:15.811Z,57.68
2022-10-25T21:27:43.568Z,58.02
2022-10-25T21:30:11.887Z,58.11
2022-10-25T21:32:39.526Z,57.80
2022-10-25T21:35:09.386Z,57.65
2022-10-25T21:37:37.014Z,58.04
2022-10-25T21:40:05.293Z,57.90
2022-10-25T21:42:32.949Z,57.84
2022-10-25T21:45:00.775Z,57.97
2022-10-25T21:47:28.429Z,57.96
2022-10-25T21:49:56.842Z,58.08
2022-10-25T21:52:25.930Z,57.96
2022-10-25T21:54:53.645Z,57.82
2022-10-25T21:57:21.297Z,58.02
2022-10-25T21:59:49.086Z,57.63
2022-10-25T22:02:16.969Z,57.67
2022-10-25T22:04:44.980Z,57.96
2022-10-25T22:07:12.622Z,57.81
2022-10-25T22:09:41.678Z,58.25
2022-10-25T22:12:09.333Z,57.93
2022-10-25T22:14:37.090Z,57.93
2022-10-25T22:17:04.723Z,58.52
2022-10-25T22:19:32.511Z,58.39
2022-10-25T22:22:00.160Z,57.88
2022-10-25T22:24:27.934Z,58.43
2022-10-25T22:26:56.960Z,58.44
2022-10-25T22:29:24.701Z,58.18
2022-10-25T22:34:26.375Z,58.26
2022-10-25T22:36:54.104Z,58.72
2022-10-25T22:39:21.989Z,58.29
2022-10-25T22:41:52.677Z,58.51
2022-10-25T22:46:54.487Z,58.34
2022-10-25T22:49:22.838Z,58.53
2022-10-25T22:51:50.502Z,58.88
2022-10-25T22:54:18.300Z,58.83
2022-10-25T22:56:46.003Z,58.73
2022-10-25T22:59:13.815Z,58.86
2022-10-25T23:01:42.914Z,58.74
2022-10-25T23:04:11.109Z,59.05
2022-10-25T23:06:39.685Z,58.56
2022-10-25T23:09:08.978Z,58.78
2022-10-25T23:11:37.433Z,58.46
2022-10-25T23:14:07.355Z,58.83
2022-10-25T23:16:35.056Z,58.64
2022-10-25T23:19:04.452Z,58.52
2022-10-25T23:21:32.179Z,58.89
2022-10-25T23:24:00.425Z,59.09
2022-10-25T23:26:29.598Z,59.05
2022-10-25T23:28:57.674Z,58.61
2022-10-25T23:31:25.458Z,58.64
2022-10-25T23:33:53.845Z,59.02
2022-10-25T23:36:23.967Z,58.67
2022-10-25T23:38:52.135Z,58.68
2022-10-25T23:41:20.108Z,58.63
2022-10-25T23:43:47.926Z,58.56
2022-10-25T23:46:15.538Z,58.43
2022-10-25T23:48:43.538Z,58.63
2022-10-25T23:51:12.506Z,58.50
2022-10-25T23:53:41.701Z,58.20
2022-10-25T23:56:10.435Z,58.59
2022-10-25T23:58:38.293Z,57.83
